Time;durP1;ratioP1;P1;durP2;ratioP2;P2;SDS_P1;SDS_P2;PMS_P1;PMS_P2;Temp;Humidity;BMP_temperature;BMP_pressure;BME280_temperature;BME280_humidity;BME280_pressure;Samples;Min_cycle;Max_cycle;Signal;HPM_P1;HPM_P2
2022/07/05 00:01:02;;;;;;;3.08;2.78;;;24.10;59.90;;;;;;5061880;28;20023;-70
2022/07/05 00:03:28;;;;;;;3.42;2.97;;;24.10;59.80;;;;;;5059572;28;20013;-71
2022/07/05 00:05:57;;;;;;;4.50;3.00;;;24.10;59.80;;;;;;5056735;28;20024;-71
2022/07/05 00:08:24;;;;;;;3.53;2.75;;;24.10;59.90;;;;;;5061363;28;20012;-71
2022/07/05 00:10:50;;;;;;;3.20;2.50;;;24.10;59.80;;;;;;5062768;28;20100;-69
2022/07/05 00:13:16;;;;;;;4.38;3.53;;;24.10;60.00;;;;;;5058251;28;20100;-71
2022/07/05 00:15:42;;;;;;;3.90;3.00;;;24.10;60.00;;;;;;5061453;28;20028;-69
2022/07/05 00:18:08;;;;;;;7.35;2.80;;;24.10;59.90;;;;;;5062533;28;20017;-71
2022/07/05 00:20:34;;;;;;;3.08;2.38;;;24.10;59.90;;;;;;5057675;28;20032;-70
2022/07/05 00:23:00;;;;;;;5.10;2.90;;;24.20;59.80;;;;;;5061765;28;20077;-70
2022/07/05 00:25:26;;;;;;;2.90;2.60;;;24.20;59.60;;;;;;5060827;28;20017;-71
2022/07/05 00:27:53;;;;;;;7.03;2.42;;;24.20;59.30;;;;;;5059058;28;20021;-71
2022/07/05 00:30:19;;;;;;;3.95;2.50;;;24.20;59.30;;;;;;5061681;28;20020;-71
2022/07/05 00:32:45;;;;;;;3.03;2.63;;;24.20;59.30;;;;;;5060703;28;20023;-70
2022/07/05 00:35:11;;;;;;;3.63;3.00;;;24.20;59.40;;;;;;5060253;28;20013;-71
2022/07/05 00:37:37;;;;;;;6.38;3.28;;;24.20;59.40;;;;;;5061902;28;20024;-70
2022/07/05 00:40:05;;;;;;;4.53;2.88;;;24.20;59.30;;;;;;5060280;28;20123;-69
2022/07/05 00:42:30;;;;;;;3.03;2.72;;;24.20;59.10;;;;;;5060178;28;20458;-70
2022/07/05 00:44:57;;;;;;;4.88;2.95;;;24.20;59.10;;;;;;5062071;28;20039;-72
2022/07/05 00:47:23;;;;;;;7.75;3.55;;;24.20;59.20;;;;;;5061461;28;20041;-71
2022/07/05 00:49:49;;;;;;;4.53;2.80;;;24.20;59.20;;;;;;5062969;28;20060;-71
2022/07/05 00:52:15;;;;;;;3.60;2.58;;;24.20;59.40;;;;;;5056946;28;20075;-71
2022/07/05 00:54:41;;;;;;;7.93;2.75;;;24.20;59.50;;;;;;5060501;28;20367;-70
2022/07/05 00:57:07;;;;;;;3.97;2.45;;;24.20;59.50;;;;;;5059842;28;20099;-71
2022/07/05 00:59:34;;;;;;;5.57;2.72;;;24.20;59.40;;;;;;5060920;28;20103;-70
2022/07/05 01:01:59;;;;;;;3.50;2.22;;;24.20;59.30;;;;;;5064930;28;20017;-71
2022/07/05 01:04:26;;;;;;;3.20;2.20;;;24.20;59.10;;;;;;5065580;28;20100;-71
2022/07/05 01:06:52;;;;;;;4.88;2.10;;;24.20;58.90;;;;;;5063721;28;20475;-71
2022/07/05 01:09:20;;;;;;;5.53;2.17;;;24.20;58.60;;;;;;5065213;28;20082;-71
2022/07/05 01:11:48;;;;;;;4.68;2.22;;;24.20;58.40;;;;;;5064765;28;20078;-70
2022/07/05 01:14:19;;;;;;;3.03;2.08;;;24.20;58.90;;;;;;5060879;28;20032;-71
2022/07/05 01:16:45;;;;;;;5.70;2.58;;;24.20;58.20;;;;;;5062886;28;20024;-71
2022/07/05 01:19:13;;;;;;;4.43;2.15;;;24.20;58.10;;;;;;5065454;28;20021;-69
2022/07/05 01:21:44;;;;;;;3.28;2.30;;;24.20;58.00;;;;;;5063020;28;20017;-71
2022/07/05 01:24:15;;;;;;;3.80;2.05;;;24.20;57.70;;;;;;5063460;28;20025;-70
2022/07/05 01:26:44;;;;;;;2.67;1.77;;;24.20;57.80;;;;;;5063223;28;20013;-70
2022/07/05 01:29:10;;;;;;;3.03;1.88;;;24.20;57.80;;;;;;5065313;28;20036;-72
2022/07/05 01:31:40;;;;;;;2.33;1.60;;;24.20;57.80;;;;;;5063701;28;20356;-70
2022/07/05 01:34:07;;;;;;;4.65;1.80;;;24.20;57.80;;;;;;5063807;28;20032;-70
2022/07/05 01:36:34;;;;;;;12.05;2.20;;;24.10;57.90;;;;;;5065290;28;20023;-71
2022/07/05 01:39:02;;;;;;;7.35;2.05;;;24.10;58.10;;;;;;5063975;28;20021;-71
2022/07/05 01:41:28;;;;;;;1.92;1.60;;;24.00;58.00;;;;;;5062225;28;20065;-71
2022/07/05 01:43:53;;;;;;;1.70;1.60;;;23.90;58.30;;;;;;5065169;28;20016;-70
2022/07/05 01:46:22;;;;;;;3.25;1.73;;;23.80;58.40;;;;;;5063902;28;20021;-70
2022/07/05 01:48:50;;;;;;;2.60;1.40;;;23.70;58.60;;;;;;5063261;28;20029;-72
2022/07/05 01:51:22;;;;;;;1.35;1.20;;;23.70;58.50;;;;;;5061049;28;20092;-70
2022/07/05 01:53:51;;;;;;;2.45;1.25;;;23.60;58.50;;;;;;5063265;28;20507;-70
2022/07/05 01:56:17;;;;;;;4.72;1.40;;;23.50;58.80;;;;;;5060944;28;20045;-70
2022/07/05 01:58:45;;;;;;;1.55;1.42;;;23.50;59.00;;;;;;5063600;28;20544;-70
2022/07/05 02:01:12;;;;;;;3.45;1.25;;;23.50;59.20;;;;;;5064883;28;20024;-72
2022/07/05 02:03:39;;;;;;;2.60;1.27;;;23.40;59.30;;;;;;5063390;28;20096;-71
2022/07/05 02:06:07;;;;;;;5.38;2.15;;;23.40;59.60;;;;;;5063319;28;20016;-71
2022/07/05 02:08:33;;;;;;;1.98;1.60;;;23.30;60.10;;;;;;5064642;28;20017;-72
2022/07/05 02:10:59;;;;;;;2.90;1.70;;;23.30;61.00;;;;;;5059528;28;20017;-71
2022/07/05 02:13:25;;;;;;;10.00;2.05;;;23.20;62.50;;;;;;5063467;28;20028;-72
2022/07/05 02:15:51;;;;;;;3.38;2.00;;;23.00;62.80;;;;;;5064581;28;20381;-71
2022/07/05 02:18:16;;;;;;;3.30;1.60;;;22.90;63.40;;;;;;5062835;28;20017;-71
2022/07/05 02:20:42;;;;;;;6.40;1.88;;;22.80;64.50;;;;;;5063531;28;20056;-71
2022/07/05 02:23:09;;;;;;;5.05;2.55;;;22.70;65.30;;;;;;5063194;28;20029;-71
2022/07/05 02:25:35;;;;;;;2.95;2.72;;;22.50;65.70;;;;;;5059817;28;20032;-70
2022/07/05 02:28:01;;;;;;;3.20;2.90;;;22.40;66.40;;;;;;5062301;28;20063;-70
2022/07/05 02:30:27;;;;;;;3.10;2.80;;;22.20;67.10;;;;;;5064082;28;20024;-72
2022/07/05 02:32:53;;;;;;;4.43;4.03;;;22.10;68.60;;;;;;5060940;28;20021;-71
2022/07/05 02:35:19;;;;;;;10.20;5.50;;;22.00;68.70;;;;;;5063727;28;20115;-70
2022/07/05 02:37:45;;;;;;;7.63;7.03;;;21.90;69.60;;;;;;5063876;28;20055;-72
2022/07/05 02:40:13;;;;;;;15.80;8.55;;;21.80;71.30;;;;;;5061957;28;20033;-69
2022/07/05 02:42:39;;;;;;;9.25;8.60;;;21.70;72.60;;;;;;5063631;28;20021;-73
2022/07/05 02:45:06;;;;;;;10.43;9.63;;;21.60;75.00;;;;;;5063582;28;20025;-70
2022/07/05 02:47:33;;;;;;;18.75;11.02;;;21.50;76.20;;;;;;5061887;28;20013;-69
2022/07/05 02:50:06;;;;;;;12.25;11.05;;;21.40;77.70;;;;;;5063406;28;20493;-71
2022/07/05 02:52:33;;;;;;;20.43;10.97;;;21.40;78.80;;;;;;5063960;28;20036;-71
2022/07/05 02:54:58;;;;;;;11.95;11.05;;;21.30;79.40;;;;;;5062437;28;20270;-72
2022/07/05 02:57:24;;;;;;;12.02;10.82;;;21.20;80.70;;;;;;5061254;28;20428;-71
2022/07/05 02:59:53;;;;;;;11.77;10.70;;;21.20;81.50;;;;;;5063708;28;20033;-71
2022/07/05 03:02:19;;;;;;;11.75;10.63;;;21.10;83.50;;;;;;5062465;28;20031;-68
2022/07/05 03:04:45;;;;;;;11.38;10.27;;;21.20;85.40;;;;;;5062245;28;20038;-71
2022/07/05 03:07:11;;;;;;;10.75;9.85;;;21.20;86.90;;;;;;5063626;28;20021;-72
2022/07/05 03:09:36;;;;;;;11.40;10.48;;;21.20;88.10;;;;;;5059897;28;20017;-72
2022/07/05 03:12:03;;;;;;;10.88;10.10;;;21.20;88.80;;;;;;5062443;28;20028;-72
2022/07/05 03:14:28;;;;;;;11.38;10.30;;;21.30;89.70;;;;;;5063605;28;20510;-73
2022/07/05 03:16:54;;;;;;;11.15;10.02;;;21.20;89.90;;;;;;5061396;28;20039;-70
2022/07/05 03:19:20;;;;;;;10.15;9.45;;;21.20;89.90;;;;;;5062722;28;20463;-72
2022/07/05 03:21:46;;;;;;;10.30;9.60;;;21.20;90.10;;;;;;5068259;28;20050;-68
2022/07/05 03:24:12;;;;;;;11.18;10.02;;;21.30;90.40;;;;;;5072773;28;20077;-70
2022/07/05 03:26:37;;;;;;;10.05;9.10;;;21.20;90.30;;;;;;5072629;28;20478;-74
2022/07/05 03:29:04;;;;;;;10.43;9.48;;;21.20;90.20;;;;;;5072557;28;20032;-72
2022/07/05 03:31:29;;;;;;;8.93;8.25;;;21.10;90.30;;;;;;5072496;28;20363;-69
2022/07/05 03:33:56;;;;;;;10.05;9.25;;;21.10;90.30;;;;;;5072469;28;20085;-70
2022/07/05 03:36:22;;;;;;;10.57;9.48;;;21.10;90.20;;;;;;5072482;28;20051;-69
2022/07/05 03:38:48;;;;;;;10.27;9.48;;;21.10;90.40;;;;;;5072251;28;20033;-71
2022/07/05 03:41:14;;;;;;;9.88;9.07;;;21.10;90.50;;;;;;5072439;28;20374;-72
2022/07/05 03:43:40;;;;;;;9.55;8.75;;;21.10;90.70;;;;;;5072597;28;20066;-73
2022/07/05 03:46:06;;;;;;;9.57;8.77;;;21.10;91.00;;;;;;5072250;28;20073;-72
2022/07/05 03:48:32;;;;;;;9.18;8.23;;;21.10;91.10;;;;;;5072189;28;20021;-71
2022/07/05 03:50:58;;;;;;;9.13;8.43;;;21.10;91.10;;;;;;5070778;28;20103;-72
2022/07/05 03:53:24;;;;;;;8.65;7.93;;;21.10;91.20;;;;;;5070840;28;20035;-69
2022/07/05 03:55:50;;;;;;;8.88;8.05;;;21.10;91.10;;;;;;5071870;28;20048;-72
2022/07/05 03:58:16;;;;;;;8.95;8.02;;;21.10;91.20;;;;;;5072032;28;20028;-71
2022/07/05 04:00:42;;;;;;;8.50;7.90;;;21.10;91.30;;;;;;5072104;28;20482;-70
2022/07/05 04:03:09;;;;;;;8.65;7.80;;;21.10;91.40;;;;;;5071941;28;20098;-69
2022/07/05 04:05:35;;;;;;;8.07;7.40;;;21.00;90.90;;;;;;5071887;28;20028;-73
2022/07/05 04:08:01;;;;;;;8.68;7.88;;;21.00;91.00;;;;;;5036392;28;20079;-71
2022/07/05 04:10:26;;;;;;;8.73;7.95;;;21.00;91.30;;;;;;5032010;28;20064;-70
2022/07/05 04:12:52;;;;;;;9.38;8.57;;;21.00;91.30;;;;;;5032455;28;20108;-71
2022/07/05 04:15:18;;;;;;;9.23;8.30;;;21.00;91.60;;;;;;5030579;28;20040;-70
2022/07/05 04:17:56;;;;;;;8.02;7.40;;;21.00;91.80;;;;;;5031771;28;20026;-70
2022/07/05 04:20:24;;;;;;;8.10;7.50;;;21.10;91.90;;;;;;5031772;28;20032;-70
2022/07/05 04:22:50;;;;;;;7.90;7.20;;;21.10;91.90;;;;;;5031700;28;20021;-71
2022/07/05 04:25:16;;;;;;;7.47;6.95;;;21.10;91.80;;;;;;5031765;28;20412;-71
2022/07/05 04:27:50;;;;;;;7.32;6.63;;;21.10;91.90;;;;;;5031657;28;20021;-71
2022/07/05 04:30:17;;;;;;;7.13;6.63;;;21.10;91.90;;;;;;5031627;28;20021;-69
2022/07/05 04:32:43;;;;;;;7.95;7.07;;;21.20;92.00;;;;;;5031498;28;20029;-72
2022/07/05 04:35:10;;;;;;;8.45;7.28;;;21.20;92.10;;;;;;5030959;28;20021;-69
2022/07/05 04:37:36;;;;;;;7.68;6.95;;;21.20;92.10;;;;;;5031581;28;20056;-71
2022/07/05 04:40:04;;;;;;;7.25;6.65;;;21.20;92.10;;;;;;5031390;28;20030;-72
2022/07/05 04:42:30;;;;;;;8.48;7.25;;;21.30;92.20;;;;;;5031556;28;20052;-73
2022/07/05 04:44:56;;;;;;;8.60;7.03;;;21.30;92.30;;;;;;5032052;28;20517;-71
2022/07/05 04:47:22;;;;;;;6.40;5.80;;;21.30;92.20;;;;;;5040195;28;20398;-69
2022/07/05 04:49:48;;;;;;;7.03;6.53;;;21.40;92.30;;;;;;5050541;28;20025;-70
2022/07/05 04:52:14;;;;;;;7.20;6.60;;;21.30;92.30;;;;;;5048617;28;20037;-73
2022/07/05 04:54:40;;;;;;;7.05;6.45;;;21.40;92.30;;;;;;5051379;28;20390;-69
2022/07/05 04:57:05;;;;;;;7.05;6.35;;;21.40;92.30;;;;;;5049962;28;20405;-71
2022/07/05 04:59:32;;;;;;;7.75;6.90;;;21.40;92.40;;;;;;5051337;28;20041;-72
2022/07/05 05:01:57;;;;;;;8.05;6.28;;;21.50;92.50;;;;;;5051322;28;20462;-72
2022/07/05 05:04:23;;;;;;;7.18;6.47;;;21.50;92.40;;;;;;5047340;28;20025;-68
2022/07/05 05:06:49;;;;;;;6.22;5.82;;;21.50;92.40;;;;;;5029936;28;20113;-68
2022/07/05 05:09:15;;;;;;;6.85;6.25;;;21.50;92.40;;;;;;5031507;28;20554;-72
2022/07/05 05:11:41;;;;;;;6.30;5.80;;;21.50;92.60;;;;;;5031276;28;20033;-71
2022/07/05 05:14:06;;;;;;;6.43;5.55;;;21.50;92.20;;;;;;5031283;28;20104;-72
2022/07/05 05:16:32;;;;;;;5.40;5.00;;;21.60;92.20;;;;;;5031473;28;20472;-71
2022/07/05 05:18:58;;;;;;;6.55;5.93;;;21.60;92.30;;;;;;5031073;28;20479;-70
2022/07/05 05:21:25;;;;;;;8.93;5.95;;;21.60;92.30;;;;;;5031163;28;20021;-69
2022/07/05 05:23:51;;;;;;;6.47;5.75;;;21.60;92.40;;;;;;5031110;28;20036;-71
2022/07/05 05:26:17;;;;;;;6.13;5.53;;;21.60;92.50;;;;;;5031244;28;20025;-71
2022/07/05 05:28:42;;;;;;;5.85;5.35;;;21.60;92.40;;;;;;5029866;28;20079;-71
2022/07/05 05:31:09;;;;;;;5.70;5.20;;;21.70;92.50;;;;;;5034337;28;20105;-71
2022/07/05 05:33:35;;;;;;;5.40;4.90;;;21.70;92.90;;;;;;5029934;28;20087;-72
2022/07/05 05:36:01;;;;;;;5.35;4.95;;;21.80;92.70;;;;;;5031024;28;20033;-70
2022/07/05 05:38:27;;;;;;;5.50;5.00;;;21.80;92.70;;;;;;5031177;28;20105;-69
2022/07/05 05:40:53;;;;;;;4.97;4.57;;;21.80;92.70;;;;;;5044084;28;20056;-73
2022/07/05 05:43:19;;;;;;;4.45;4.15;;;21.90;92.80;;;;;;5050479;28;20073;-72
2022/07/05 05:45:45;;;;;;;5.05;4.65;;;21.90;92.80;;;;;;5052751;28;20051;-69
2022/07/05 05:48:11;;;;;;;5.43;4.93;;;21.90;92.80;;;;;;5054154;28;20108;-72
2022/07/05 05:50:40;;;;;;;7.10;4.80;;;22.00;92.90;;;;;;5054980;28;20142;-70
2022/07/05 05:53:07;;;;;;;6.10;4.65;;;22.00;93.00;;;;;;5061829;28;20454;-72
2022/07/05 05:55:34;;;;;;;6.38;4.53;;;22.10;92.90;;;;;;5064539;28;20052;-73
2022/07/05 05:58:21;;;;;;;5.30;4.70;;;22.10;92.90;;;;;;5059802;28;20077;-69
2022/07/05 06:00:52;;;;;;;5.75;4.68;;;22.20;93.10;;;;;;5061999;28;20064;-72
2022/07/05 06:03:19;;;;;;;5.75;4.72;;;22.20;92.90;;;;;;5059454;28;20013;-72
2022/07/05 06:05:45;;;;;;;7.82;4.97;;;22.30;93.00;;;;;;5062370;28;20030;-69
2022/07/05 06:08:12;;;;;;;5.38;4.88;;;22.30;92.50;;;;;;5059382;28;20441;-70
2022/07/05 06:10:38;;;;;;;5.88;4.75;;;22.30;92.50;;;;;;5061445;28;20024;-73
2022/07/05 06:13:10;;;;;;;5.55;4.97;;;22.30;92.40;;;;;;5063713;28;20021;-69
2022/07/05 06:15:36;;;;;;;5.03;4.63;;;22.30;92.20;;;;;;5061999;28;20025;-73
2022/07/05 06:18:03;;;;;;;22.33;5.80;;;22.20;92.00;;;;;;5062333;28;20100;-69
2022/07/05 06:20:33;;;;;;;5.60;4.70;;;22.20;91.90;;;;;;5042803;28;20045;-70
2022/07/05 06:23:00;;;;;;;5.30;4.80;;;22.20;91.90;;;;;;5034684;28;20040;-71
2022/07/05 06:25:27;;;;;;;5.10;4.53;;;22.30;92.20;;;;;;5034742;28;20021;-72
2022/07/05 06:27:55;;;;;;;5.15;4.75;;;22.30;92.50;;;;;;5036777;28;20044;-71
2022/07/05 06:30:23;;;;;;;5.28;4.88;;;22.30;92.60;;;;;;5054324;28;20056;-69
2022/07/05 06:32:49;;;;;;;4.50;4.20;;;22.40;92.60;;;;;;5053456;28;20025;-71
2022/07/05 06:35:15;;;;;;;5.97;5.22;;;22.40;92.80;;;;;;5055521;28;20033;-69
2022/07/05 06:37:47;;;;;;;7.38;4.93;;;22.40;92.80;;;;;;5054399;28;20108;-70
2022/07/05 06:40:22;;;;;;;7.65;4.95;;;22.50;92.80;;;;;;5054436;28;20471;-70
2022/07/05 06:42:49;;;;;;;5.10;4.60;;;22.50;92.90;;;;;;5052922;28;20029;-68
2022/07/05 06:45:15;;;;;;;5.30;4.90;;;22.60;93.10;;;;;;5052763;28;20029;-72
2022/07/05 06:47:41;;;;;;;5.78;5.00;;;22.60;93.00;;;;;;5054304;28;20021;-71
2022/07/05 06:50:07;;;;;;;5.47;4.60;;;22.60;92.90;;;;;;5054201;28;20078;-72
2022/07/05 06:52:33;;;;;;;6.72;4.95;;;22.60;93.00;;;;;;5054155;28;20025;-70
2022/07/05 06:55:00;;;;;;;6.47;4.97;;;22.70;92.90;;;;;;5054172;28;20025;-71
2022/07/05 06:57:26;;;;;;;6.95;4.85;;;22.70;92.40;;;;;;5053357;28;20041;-70
2022/07/05 06:59:53;;;;;;;6.32;4.28;;;22.70;92.60;;;;;;5054247;28;20021;-72
2022/07/05 07:02:19;;;;;;;5.00;4.57;;;22.70;92.80;;;;;;5048680;28;20345;-70
2022/07/05 07:04:45;;;;;;;6.15;4.90;;;22.80;92.90;;;;;;5034300;28;20024;-70
2022/07/05 07:09:59;;;;;;;;;;;22.90;93.00;;;;;;5034676;28;20535;-70
2022/07/05 07:12:25;;;;;;;5.20;4.70;;;23.00;93.80;;;;;;5034007;28;19952;-72
2022/07/05 07:14:51;;;;;;;5.75;5.15;;;23.10;93.40;;;;;;5032799;28;20029;-71
2022/07/05 07:17:17;;;;;;;5.13;4.32;;;23.20;93.60;;;;;;5034058;28;20383;-72
2022/07/05 07:19:43;;;;;;;5.70;5.18;;;23.20;93.80;;;;;;5034032;28;20494;-72
2022/07/05 07:22:08;;;;;;;5.18;4.68;;;23.30;93.80;;;;;;5034004;28;20025;-72
2022/07/05 07:24:34;;;;;;;6.32;4.93;;;23.50;94.00;;;;;;5033852;28;20509;-73
2022/07/05 07:27:03;;;;;;;5.20;4.70;;;23.50;93.70;;;;;;5033942;28;20025;-70
2022/07/05 07:29:30;;;;;;;4.57;4.18;;;23.60;93.70;;;;;;5032322;28;20443;-72
2022/07/05 07:31:56;;;;;;;5.15;4.57;;;23.70;93.70;;;;;;5032421;28;20036;-69
2022/07/05 07:34:23;;;;;;;4.97;4.40;;;23.80;93.60;;;;;;5033701;28;20450;-71
2022/07/05 07:36:49;;;;;;;5.90;4.70;;;23.90;93.80;;;;;;5033490;28;20053;-68
2022/07/05 07:39:15;;;;;;;5.85;4.43;;;24.00;93.90;;;;;;5033532;28;20061;-71
2022/07/05 07:41:41;;;;;;;4.72;4.20;;;24.10;94.00;;;;;;5033546;28;20028;-72
2022/07/05 07:44:06;;;;;;;4.38;3.97;;;24.20;93.90;;;;;;5033261;28;20025;-68
2022/07/05 07:46:33;;;;;;;4.80;4.22;;;24.30;93.80;;;;;;5033393;28;20167;-71
2022/07/05 07:48:59;;;;;;;4.50;4.10;;;24.30;93.30;;;;;;5033199;28;20049;-72
2022/07/05 07:51:25;;;;;;;4.72;4.05;;;24.40;93.40;;;;;;5033520;28;20033;-73
2022/07/05 07:53:51;;;;;;;3.90;3.60;;;24.40;92.70;;;;;;5033457;28;20471;-70
2022/07/05 07:56:17;;;;;;;5.38;3.30;;;24.40;92.50;;;;;;5033164;28;20125;-70
2022/07/05 07:58:43;;;;;;;4.90;3.40;;;24.40;92.00;;;;;;5032329;28;20045;-68
2022/07/05 08:01:10;;;;;;;3.92;3.20;;;24.40;92.00;;;;;;5033449;28;20064;-70
2022/07/05 08:03:43;;;;;;;4.13;3.00;;;24.50;92.20;;;;;;5033582;28;20079;-71
2022/07/05 08:06:10;;;;;;;3.75;3.28;;;24.50;92.50;;;;;;5033377;28;20132;-71
2022/07/05 08:08:38;;;;;;;5.70;3.50;;;24.60;92.20;;;;;;5031852;28;20540;-72
2022/07/05 08:11:04;;;;;;;4.05;2.95;;;24.70;91.80;;;;;;5032000;28;20078;-71
2022/07/05 08:13:31;;;;;;;7.75;3.50;;;24.80;92.30;;;;;;5032030;28;20024;-71
2022/07/05 08:15:57;;;;;;;8.30;3.50;;;25.00;93.00;;;;;;5033162;28;20100;-71
2022/07/05 08:23:52;;;;;;;;;;;25.60;92.50;;;;;;5033514;28;20099;-70
2022/07/05 08:26:18;;;;;;;3.58;2.90;;;25.90;94.70;;;;;;5033027;28;19905;-72
2022/07/05 08:28:43;;;;;;;4.10;3.00;;;26.00;91.70;;;;;;5032967;28;20488;-69
2022/07/05 08:31:09;;;;;;;6.82;3.30;;;26.20;91.90;;;;;;5033017;28;20021;-70
2022/07/05 08:33:35;;;;;;;3.30;2.72;;;26.30;90.90;;;;;;5031639;28;20021;-72
2022/07/05 08:36:01;;;;;;;3.08;2.53;;;26.40;88.40;;;;;;5032952;28;20032;-71
2022/07/05 08:38:27;;;;;;;3.85;2.88;;;26.40;85.50;;;;;;5031665;28;20026;-71
2022/07/05 08:40:55;;;;;;;4.75;2.95;;;26.30;84.90;;;;;;5032880;28;20040;-72
2022/07/05 08:43:22;;;;;;;4.30;3.10;;;26.30;86.30;;;;;;5032873;28;20537;-69
2022/07/05 08:45:50;;;;;;;3.58;3.03;;;26.30;83.50;;;;;;5032794;28;20028;-71
2022/07/05 08:48:16;;;;;;;2.60;2.33;;;26.40;83.40;;;;;;5032844;28;20467;-68
2022/07/05 08:50:43;;;;;;;3.45;2.70;;;26.40;83.90;;;;;;5032832;28;20424;-69
2022/07/05 08:53:10;;;;;;;3.47;2.85;;;26.40;84.70;;;;;;5032789;28;20045;-69
2022/07/05 08:55:36;;;;;;;2.63;2.42;;;26.50;84.60;;;;;;5032557;28;20077;-70
2022/07/05 08:58:02;;;;;;;4.53;3.50;;;26.60;85.40;;;;;;5032838;28;20438;-71
2022/07/05 09:00:28;;;;;;;12.50;3.65;;;26.70;82.30;;;;;;5032537;28;20372;-71
2022/07/05 09:02:56;;;;;;;5.13;3.40;;;26.80;81.70;;;;;;5031320;28;20056;-69
2022/07/05 09:05:23;;;;;;;5.95;2.58;;;26.90;78.60;;;;;;5031309;28;20114;-72
2022/07/05 09:07:59;;;;;;;5.20;3.08;;;27.00;77.40;;;;;;5032620;28;20025;-70
2022/07/05 09:10:27;;;;;;;3.55;2.65;;;27.00;75.20;;;;;;5032673;28;20045;-73
2022/07/05 09:12:55;;;;;;;2.88;2.53;;;27.10;74.50;;;;;;5031228;28;20076;-71
2022/07/05 09:15:22;;;;;;;10.60;3.00;;;27.20;74.10;;;;;;5032544;28;20075;-72
2022/07/05 09:17:47;;;;;;;5.57;2.67;;;27.20;69.30;;;;;;5032501;28;20104;-70
2022/07/05 09:20:16;;;;;;;4.80;2.78;;;27.30;71.90;;;;;;5033734;28;20135;-72
2022/07/05 09:22:53;;;;;;;2.92;2.70;;;27.40;69.00;;;;;;5034991;28;20108;-69
2022/07/05 09:25:24;;;;;;;4.65;2.30;;;27.40;68.80;;;;;;5036402;28;20017;-70
2022/07/05 09:27:52;;;;;;;2.17;1.98;;;27.40;67.10;;;;;;5036343;28;20076;-70
2022/07/05 09:30:39;;;;;;;4.28;2.40;;;27.40;66.10;;;;;;5036121;28;20036;-71
2022/07/05 09:33:12;;;;;;;2.47;2.28;;;27.50;67.60;;;;;;5034654;28;20044;-70
2022/07/05 09:35:43;;;;;;;;;;;27.50;66.10;;;;;;5036442;28;20402;-69
2022/07/05 09:38:20;;;;;;;5.70;2.28;;;27.50;69.20;;;;;;5035952;28;20318;-71
2022/07/05 09:40:53;;;;;;;3.22;2.33;;;27.40;64.20;;;;;;5035904;28;20528;-71
2022/07/05 09:43:25;;;;;;;2.63;2.13;;;27.30;63.20;;;;;;5035954;28;20036;-69
2022/07/05 09:45:59;;;;;;;2.50;1.95;;;27.20;59.80;;;;;;5035845;28;20029;-71
2022/07/05 09:48:26;;;;;;;2.47;2.05;;;27.10;61.60;;;;;;5035795;28;20045;-71
2022/07/05 09:50:51;;;;;;;2.55;2.13;;;27.10;62.10;;;;;;5035764;28;20033;-69
2022/07/05 09:53:18;;;;;;;2.35;2.15;;;27.00;60.70;;;;;;5034569;28;20025;-71
2022/07/05 09:56:01;;;;;;;3.47;2.30;;;26.90;60.10;;;;;;5035442;28;20045;-69
2022/07/05 09:58:28;;;;;;;2.17;1.95;;;26.80;60.60;;;;;;5035554;28;20029;-71
2022/07/05 10:00:53;;;;;;;2.22;2.03;;;26.80;61.50;;;;;;5035632;28;20084;-70
2022/07/05 10:03:19;;;;;;;2.28;2.08;;;26.80;60.50;;;;;;5035571;28;20026;-70
2022/07/05 10:05:45;;;;;;;2.35;1.67;;;26.80;63.10;;;;;;5035449;28;20070;-68
2022/07/05 10:08:13;;;;;;;3.70;2.40;;;26.80;63.10;;;;;;5035450;28;20049;-68
2022/07/05 10:10:41;;;;;;;4.03;1.98;;;26.80;61.10;;;;;;5034076;28;20029;-68
2022/07/05 10:13:07;;;;;;;2.55;2.20;;;26.80;59.50;;;;;;5035296;28;20029;-70
2022/07/05 10:15:34;;;;;;;5.72;2.25;;;26.70;60.80;;;;;;5035282;28;20029;-69
2022/07/05 10:18:16;;;;;;;3.78;2.25;;;26.70;59.20;;;;;;5035291;28;20056;-69
2022/07/05 10:20:46;;;;;;;3.08;2.25;;;26.60;60.90;;;;;;5035259;28;20029;-70
2022/07/05 10:23:17;;;;;;;4.18;2.22;;;26.60;61.60;;;;;;5034022;28;20379;-69
2022/07/05 10:25:48;;;;;;;2.00;1.85;;;26.60;60.90;;;;;;5035098;28;20423;-68
2022/07/05 10:28:18;;;;;;;3.53;2.38;;;26.60;60.10;;;;;;5035222;28;20025;-71
2022/07/05 10:30:45;;;;;;;2.45;2.25;;;26.60;60.20;;;;;;5034725;28;20104;-70
2022/07/05 10:33:14;;;;;;;2.85;2.33;;;26.60;61.20;;;;;;5034024;28;20033;-70
2022/07/05 10:35:46;;;;;;;4.18;2.60;;;26.70;60.50;;;;;;5035010;28;20025;-70
2022/07/05 10:38:13;;;;;;;4.28;2.30;;;26.70;60.10;;;;;;5035006;28;20087;-70
2022/07/05 10:40:42;;;;;;;2.95;2.30;;;26.70;59.10;;;;;;5034708;28;20112;-71
2022/07/05 10:43:10;;;;;;;2.58;2.20;;;26.70;59.40;;;;;;5034779;28;20029;-71
2022/07/05 10:45:40;;;;;;;2.45;2.17;;;26.70;58.90;;;;;;5034743;28;20046;-71
2022/07/05 10:48:09;;;;;;;3.70;2.78;;;26.70;58.90;;;;;;5034685;28;20029;-70
2022/07/05 10:50:56;;;;;;;2.75;2.33;;;26.70;58.40;;;;;;5034741;28;20416;-71
2022/07/05 10:53:24;;;;;;;3.72;2.40;;;26.80;60.80;;;;;;5033408;28;20029;-69
2022/07/05 10:56:11;;;;;;;3.95;2.03;;;26.80;58.60;;;;;;5034356;28;20107;-71
2022/07/05 10:58:40;;;;;;;6.03;2.45;;;26.80;59.20;;;;;;5034513;28;20083;-71
2022/07/05 11:01:12;;;;;;;3.22;1.92;;;26.90;59.00;;;;;;5034579;28;20021;-70
2022/07/05 11:04:00;;;;;;;4.22;2.30;;;27.00;58.60;;;;;;5034303;28;20049;-69
2022/07/05 11:06:28;;;;;;;3.90;2.03;;;27.00;58.80;;;;;;5033173;28;20049;-70
2022/07/05 11:08:59;;;;;;;3.88;2.63;;;27.10;57.90;;;;;;5034440;28;20031;-70
2022/07/05 11:11:30;;;;;;;4.25;2.22;;;27.10;58.90;;;;;;5034289;28;20044;-71
2022/07/05 11:14:00;;;;;;;3.10;2.30;;;27.20;57.30;;;;;;5033050;28;20057;-71
2022/07/05 11:16:31;;;;;;;3.60;2.25;;;27.20;56.70;;;;;;5034489;28;20021;-71
2022/07/05 11:19:09;;;;;;;1.95;1.75;;;27.30;58.60;;;;;;5032855;28;20034;-72
2022/07/05 11:21:38;;;;;;;16.92;3.10;;;27.30;57.50;;;;;;5034026;28;20119;-69
2022/07/05 11:24:25;;;;;;;9.57;2.60;;;27.30;56.80;;;;;;5034069;28;20483;-69
2022/07/05 11:26:53;;;;;;;5.35;2.40;;;27.40;57.80;;;;;;5033920;28;20440;-69
2022/07/05 11:29:44;;;;;;;3.83;2.22;;;27.40;57.00;;;;;;5032564;28;20025;-69
2022/07/05 11:32:13;;;;;;;14.43;4.00;;;27.50;57.40;;;;;;5032503;28;20026;-70
2022/07/05 11:34:41;;;;;;;5.22;2.47;;;27.60;56.60;;;;;;5033778;28;20029;-69
2022/07/05 11:37:34;;;;;;;2.75;2.30;;;27.60;55.50;;;;;;5033683;28;20493;-69
2022/07/05 11:40:11;;;;;;;3.30;2.10;;;27.70;56.00;;;;;;5033769;28;20057;-71
2022/07/05 11:42:45;;;;;;;3.53;2.40;;;27.90;55.90;;;;;;5032146;28;20018;-69
2022/07/05 11:45:11;;;;;;;3.45;2.50;;;27.90;55.90;;;;;;5033672;28;20026;-70
2022/07/05 11:47:37;;;;;;;2.92;1.98;;;28.00;54.40;;;;;;5032343;28;20029;-70
2022/07/05 11:50:03;;;;;;;5.43;2.40;;;28.10;55.90;;;;;;5033545;28;20044;-70
2022/07/05 11:52:33;;;;;;;2.58;2.10;;;28.10;54.20;;;;;;5033571;28;20018;-70
2022/07/05 11:55:04;;;;;;;9.40;2.72;;;28.00;53.80;;;;;;5036011;28;20485;-71
2022/07/05 11:57:30;;;;;;;7.70;2.33;;;28.00;54.90;;;;;;5052051;28;20521;-71
2022/07/05 11:59:56;;;;;;;4.03;2.28;;;28.00;54.30;;;;;;5053146;28;20029;-71
2022/07/05 12:02:22;;;;;;;3.58;2.08;;;28.00;54.60;;;;;;5053216;28;20028;-71
2022/07/05 12:04:56;;;;;;;2.55;2.20;;;28.10;54.60;;;;;;5051909;28;20029;-71
2022/07/05 12:07:32;;;;;;;2.63;2.10;;;28.10;54.50;;;;;;5051922;28;20025;-69
2022/07/05 12:12:44;;;;;;;3.65;2.53;;;28.20;53.20;;;;;;5053666;28;20040;-70
2022/07/05 12:15:18;;;;;;;2.88;2.10;;;28.20;52.20;;;;;;5053181;28;20021;-70
2022/07/05 12:17:46;;;;;;;11.73;2.63;;;28.20;54.40;;;;;;5052971;28;20131;-72
2022/07/05 12:20:15;;;;;;;2.58;2.30;;;28.30;52.90;;;;;;5051544;28;20036;-71
2022/07/05 12:22:43;;;;;;;3.47;2.42;;;28.40;52.30;;;;;;5051611;28;20083;-71
2022/07/05 12:25:14;;;;;;;6.90;2.33;;;28.40;52.70;;;;;;5052888;28;20025;-70
2022/07/05 12:27:42;;;;;;;3.17;2.70;;;28.50;51.60;;;;;;5051675;28;20437;-71
2022/07/05 12:30:10;;;;;;;2.97;2.47;;;28.60;51.80;;;;;;5052818;28;20108;-70
2022/07/05 12:32:59;;;;;;;5.50;2.88;;;28.80;53.20;;;;;;5052835;28;20032;-71
2022/07/05 12:35:32;;;;;;;6.72;2.30;;;28.90;51.00;;;;;;5052801;28;20107;-69
2022/07/05 12:38:18;;;;;;;8.82;2.55;;;29.00;53.10;;;;;;5051545;28;20047;-72
2022/07/05 12:40:56;;;;;;;5.07;2.20;;;29.20;52.20;;;;;;5052778;28;20029;-70
2022/07/05 12:43:22;;;;;;;7.47;2.80;;;29.30;52.40;;;;;;5051470;28;20112;-71
2022/07/05 12:46:06;;;;;;;5.03;2.17;;;29.40;50.90;;;;;;5051515;28;20178;-70
2022/07/05 12:48:36;;;;;;;13.32;2.65;;;29.50;51.10;;;;;;5052701;28;20021;-70
2022/07/05 12:51:03;;;;;;;18.45;3.80;;;29.60;52.00;;;;;;5051350;28;20037;-71
2022/07/05 12:59:04;;;;;;;4.70;2.33;;;29.70;48.70;;;;;;5056921;28;20032;-69
2022/07/05 13:01:34;;;;;;;2.90;1.85;;;29.80;50.50;;;;;;5055487;28;20029;-70
2022/07/05 13:04:12;;;;;;;3.05;2.47;;;29.90;51.10;;;;;;5055311;28;20390;-69
2022/07/05 13:06:54;;;;;;;2.55;2.22;;;30.00;50.00;;;;;;5056477;28;20021;-70